This is the latest recevied weather packets stored in our database for station/object DM5AO-10. If no packets are shown the sender has not sent any weather packets the latest 10 day(s).
| Time | Temp. | Humidity | Pressure | Rain* | Wind** | Luminosity | Snow |
|---|---|---|---|---|---|---|---|
| 1787770615 | 25° C | 40% | 1021.3 hPa | - | - | - | - |
| 1787769714 | 25° C | 40% | 1021.2 hPa | - | - | - | - |
| 1787768857 | 25.56° C | 39% | 1021.2 hPa | - | - | - | - |
| 1787768813 | 25.56° C | 39% | 1021.2 hPa | - | - | - | - |
| 1787767913 | 25.56° C | 38% | 1021.2 hPa | - | - | - | - |
| 1787767012 | 26.11° C | 37% | 1021 hPa | - | - | - | - |
| 1787766111 | 26.11° C | 37% | 1021.1 hPa | - | - | - | - |
| 1787765210 | 26.11° C | 36% | 1021 hPa | - | - | - | - |
| 1787764308 | 26.67° C | 36% | 1021 hPa | - | - | - | - |
| 1787763407 | 26.67° C | 36% | 1020.9 hPa | - | - | - | - |
| 1787762506 | 27.22° C | 36% | 1021 hPa | - | - | - | - |
| 1787761605 | 27.78° C | 35% | 1021.1 hPa | - | - | - | - |
| 1787760705 | 27.78° C | 35% | 1021 hPa | - | - | - | - |
| 1787759804 | 28.33° C | 34% | 1021.1 hPa | - | - | - | - |
| 1787758903 | 29.44° C | 33% | 1021.1 hPa | - | - | - | - |
| 1787758002 | 29.44° C | 33% | 1021.2 hPa | - | - | - | - |
| 1787757102 | 29.44° C | 33% | 1021.2 hPa | - | - | - | - |
| 1787756201 | 29.44° C | 32% | 1021.3 hPa | - | - | - | - |
| 1787755300 | 31.67° C | 30% | 1021.4 hPa | - | - | - | - |
| 1787754590 | 28.33° C | 35% | 1021.3 hPa | - | - | - | - |
| 1787754399 | 28.33° C | 35% | 1021.3 hPa | - | - | - | - |
| 1787753498 | 27.78° C | 36% | 1021.3 hPa | - | - | - | - |
| 1787752597 | 27.22° C | 38% | 1021.4 hPa | - | - | - | - |
| 1787751696 | 26.67° C | 38% | 1021.4 hPa | - | - | - | - |
| 1787750796 | 27.22° C | 37% | 1021.6 hPa | - | - | - | - |
* Rain since midnight (hover to see other rain measurements)
** Current wind speed in m/s (hover to see current wind gust speed)